Time;durP1;ratioP1;P1;durP2;ratioP2;P2;SDS_P1;SDS_P2;PMS_P1;PMS_P2;Temp;Humidity;BMP_temperature;BMP_pressure;BME280_temperature;BME280_humidity;BME280_pressure;Samples;Min_cycle;Max_cycle;Signal;HPM_P1;HPM_P2
2023/10/10 00:00:48;;;;;;;4.17;1.40;;;;;;;16.29;54.46;99250.22;5095423;28;20160;-86
2023/10/10 00:03:17;;;;;;;2.77;1.20;;;;;;;16.30;54.25;99254.53;5077019;28;20179;-87
2023/10/10 00:05:44;;;;;;;2.97;1.50;;;;;;;16.22;54.61;99243.66;5077927;28;20590;-86
2023/10/10 00:08:11;;;;;;;2.87;0.97;;;;;;;16.21;54.65;99230.56;5095009;28;20236;-86
2023/10/10 00:10:50;;;;;;;4.07;1.40;;;;;;;16.23;54.58;99234.78;5095156;28;20182;-87
2023/10/10 00:13:17;;;;;;;2.47;1.10;;;;;;;16.17;54.38;99229.94;5076515;28;20205;-87
2023/10/10 00:15:51;;;;;;;5.67;1.30;;;;;;;16.21;54.05;99231.41;5077017;28;20203;-87
2023/10/10 00:18:18;;;;;;;3.13;1.47;;;;;;;16.17;54.33;99218.53;5094824;28;20183;-87
2023/10/10 00:21:06;;;;;;;3.50;1.50;;;;;;;16.08;54.52;99225.34;5094568;28;20176;-86
2023/10/10 00:23:38;;;;;;;3.17;1.17;;;;;;;16.07;54.17;99218.34;5076574;28;20632;-86
2023/10/10 00:26:05;;;;;;;4.20;1.53;;;;;;;16.01;54.11;99208.22;5094944;28;20225;-87
2023/10/10 00:28:34;;;;;;;4.90;1.50;;;;;;;16.04;53.82;99204.53;5094316;28;20172;-86
2023/10/10 00:31:05;;;;;;;4.63;1.17;;;;;;;16.08;53.96;99213.91;5076691;28;20182;-87
2023/10/10 00:33:31;;;;;;;6.57;1.37;;;;;;;16.00;53.86;99203.91;5076293;28;20194;-86
2023/10/10 00:35:59;;;;;;;6.33;1.50;;;;;;;15.91;54.52;99199.28;5094928;28;20608;-86
2023/10/10 00:38:26;;;;;;;5.03;1.00;;;;;;;15.86;54.50;99194.34;5076416;28;20206;-86
2023/10/10 00:40:54;;;;;;;2.50;1.13;;;;;;;15.70;55.29;99190.25;5076200;28;20205;-87
2023/10/10 00:43:23;;;;;;;3.67;1.30;;;;;;;15.62;55.34;99182.91;5094254;28;20163;-87
2023/10/10 00:45:53;;;;;;;3.27;1.33;;;;;;;15.51;55.35;99169.66;5077238;28;20204;-87
2023/10/10 00:48:23;;;;;;;3.87;1.10;;;;;;;15.49;55.08;99173.34;5094207;28;20186;-86
2023/10/10 00:50:53;;;;;;;4.10;1.27;;;;;;;15.54;54.84;99171.22;5094355;28;20179;-86
2023/10/10 00:53:22;;;;;;;3.00;1.57;;;;;;;15.50;54.65;99172.38;5094007;28;20193;-87
2023/10/10 00:55:57;;;;;;;2.57;1.30;;;;;;;15.51;54.25;99176.72;5075904;28;20192;-87
2023/10/10 00:58:35;;;;;;;3.93;1.40;;;;;;;15.45;53.75;99179.75;5077365;28;20182;-86
2023/10/10 01:01:19;;;;;;;4.30;1.10;;;;;;;15.44;53.58;99202.69;5093750;28;20183;-87
2023/10/10 01:03:50;;;;;;;2.87;1.10;;;;;;;15.46;53.58;99207.91;5076086;28;20201;-86
2023/10/10 01:06:26;;;;;;;6.80;1.37;;;;;;;15.44;53.80;99196.53;5093914;28;20611;-87
2023/10/10 01:08:58;;;;;;;4.47;1.70;;;;;;;15.39;54.17;99197.72;5076043;28;20184;-87
2023/10/10 01:11:23;;;;;;;3.73;1.60;;;;;;;15.36;54.49;99192.66;5075986;28;20165;-86
2023/10/10 01:13:52;;;;;;;7.03;1.60;;;;;;;15.34;54.79;99199.84;5094216;28;20211;-87
2023/10/10 01:16:23;;;;;;;4.87;1.40;;;;;;;15.35;54.62;99188.34;5093636;28;20586;-87
2023/10/10 01:18:51;;;;;;;4.87;1.13;;;;;;;15.36;54.64;99183.88;5075545;28;20309;-87
2023/10/10 01:21:30;;;;;;;4.03;1.10;;;;;;;15.33;55.21;99179.66;5076400;28;20201;-87
2023/10/10 01:24:06;;;;;;;2.97;1.13;;;;;;;15.31;55.48;99176.31;5093438;28;20194;-86
2023/10/10 01:26:37;;;;;;;3.37;1.07;;;;;;;15.34;55.05;99176.09;5075927;28;20237;-87
2023/10/10 01:29:25;;;;;;;3.87;1.60;;;;;;;15.28;55.06;99181.81;5075681;28;20173;-86
2023/10/10 01:31:52;;;;;;;3.90;1.53;;;;;;;15.34;54.80;99181.38;5075751;28;20715;-87
2023/10/10 01:34:31;;;;;;;2.73;1.40;;;;;;;15.37;54.63;99183.81;5075624;28;20201;-87
2023/10/10 01:37:14;;;;;;;3.97;1.40;;;;;;;15.32;55.30;99179.78;5075612;28;20180;-87
2023/10/10 01:42:51;;;;;;;4.10;1.40;;;;;;;15.32;54.87;99183.28;5092770;28;20229;-86
2023/10/10 01:45:21;;;;;;;3.20;1.20;;;;;;;15.32;54.91;99185.94;5075659;28;20185;-87
2023/10/10 01:47:57;;;;;;;5.10;1.57;;;;;;;15.23;55.23;99185.72;5093563;28;20184;-87
2023/10/10 01:50:25;;;;;;;5.13;1.00;;;;;;;15.19;55.44;99192.19;5093741;28;20154;-86
2023/10/10 01:52:55;;;;;;;4.00;1.50;;;;;;;15.17;55.33;99184.34;5093107;28;20173;-87
2023/10/10 01:55:26;;;;;;;4.63;2.03;;;;;;;15.30;54.11;99182.53;5075742;28;20172;-87
2023/10/10 01:57:52;;;;;;;4.93;1.77;;;;;;;15.43;53.01;99181.66;5075829;28;20189;-86
2023/10/10 02:00:36;;;;;;;5.83;1.73;;;;;;;15.47;52.65;99183.16;5093151;28;20187;-86
2023/10/10 02:03:03;;;;;;;8.87;2.00;;;;;;;15.57;51.43;99194.75;5074968;28;20188;-87
2023/10/10 02:05:41;;;;;;;6.10;2.30;;;;;;;15.57;51.50;99178.91;5074950;28;20181;-86
2023/10/10 02:08:16;;;;;;;5.93;1.63;;;;;;;15.55;51.32;99184.31;5093685;28;20160;-86
2023/10/10 02:10:46;;;;;;;4.03;1.53;;;;;;;15.63;51.51;99194.31;5075030;28;20195;-86
2023/10/10 02:13:12;;;;;;;3.17;1.53;;;;;;;15.72;52.18;99196.31;5075363;28;20676;-87
2023/10/10 02:15:39;;;;;;;5.13;1.73;;;;;;;15.69;51.85;99191.25;5092799;28;20185;-86
2023/10/10 02:18:12;;;;;;;4.20;1.53;;;;;;;15.72;52.49;99191.84;5075574;28;20181;-87
2023/10/10 02:30:46;;;;;;;7.07;1.67;;;;;;;15.62;52.83;99206.69;5072692;28;20224;-87
2023/10/10 02:38:31;;;;;;;6.70;1.73;;;;;;;15.74;52.65;99210.25;5072746;28;20273;-87
2023/10/10 02:44:09;;;;;;;4.87;1.70;;;;;;;15.63;52.38;99212.81;5072583;28;20149;-86
2023/10/10 02:46:38;;;;;;;4.07;1.67;;;;;;;15.63;52.25;99215.44;5066254;28;20194;-86
2023/10/10 02:49:23;;;;;;;5.43;2.17;;;;;;;15.61;52.74;99214.72;5072145;28;20194;-86
2023/10/10 02:51:55;;;;;;;3.90;1.30;;;;;;;15.61;52.55;99217.38;5073077;28;20176;-86
2023/10/10 02:56:57;;;;;;;5.93;1.60;;;;;;;15.47;52.40;99218.34;5076064;28;20167;-86
2023/10/10 02:59:43;;;;;;;3.60;1.60;;;;;;;15.51;52.10;99211.06;5076119;28;20618;-87
2023/10/10 03:02:11;;;;;;;10.53;2.17;;;;;;;15.51;52.38;99213.69;5076189;28;20209;-87
2023/10/10 03:07:27;;;;;;;4.90;1.90;;;;;;;15.46;52.92;99205.25;5076003;28;20182;-87
2023/10/10 03:12:48;;;;;;;3.77;1.17;;;;;;;15.29;52.34;99201.97;5075877;28;20185;-86
2023/10/10 03:17:49;;;;;;;5.80;1.33;;;;;;;15.20;52.31;99186.78;5075874;28;20194;-85
2023/10/10 03:25:48;;;;;;;2.60;1.20;;;;;;;14.95;52.68;99188.59;5095577;28;20189;-87
2023/10/10 03:31:08;;;;;;;5.60;1.60;;;;;;;14.81;52.53;99202.75;5075723;28;20170;-86
2023/10/10 03:33:44;;;;;;;4.27;1.20;;;;;;;14.74;52.66;99204.97;5077479;28;20235;-87
2023/10/10 05:25:37;;;;;;;1.90;0.97;;;;;;;15.21;58.33;99256.28;5047826;28;20262;-87
2023/10/10 05:28:04;;;;;;;3.97;1.73;;;;;;;15.28;58.32;99258.38;5053182;28;20269;-86
2023/10/10 05:30:46;;;;;;;2.73;1.37;;;;;;;15.36;58.25;99258.69;5056271;28;20197;-86
2023/10/10 05:33:14;;;;;;;6.63;1.73;;;;;;;15.43;58.56;99259.13;5055560;28;20186;-87
2023/10/10 05:35:48;;;;;;;6.03;1.87;;;;;;;15.51;58.70;99261.25;5073765;28;20243;-86
2023/10/10 05:38:16;;;;;;;3.73;1.87;;;;;;;15.62;58.39;99271.88;5073062;28;20182;-87
2023/10/10 05:40:47;;;;;;;4.27;1.93;;;;;;;15.73;58.47;99272.81;5054783;28;20570;-86
2023/10/10 05:43:17;;;;;;;4.17;1.43;;;;;;;15.84;58.65;99277.34;5073128;28;20170;-86
2023/10/10 05:45:45;;;;;;;4.20;1.40;;;;;;;15.96;58.49;99266.72;5073451;28;20258;-87
2023/10/10 05:48:12;;;;;;;5.43;1.63;;;;;;;16.00;58.50;99256.78;5072883;28;20245;-87
2023/10/10 05:50:42;;;;;;;3.67;1.80;;;;;;;16.09;58.46;99258.75;5073336;28;20194;-87
2023/10/10 05:53:09;;;;;;;4.23;1.40;;;;;;;16.20;58.32;99261.44;5054971;28;20840;-86
2023/10/10 05:55:38;;;;;;;12.73;1.87;;;;;;;16.35;58.09;99280.66;5055305;28;20194;-87
2023/10/10 05:58:05;;;;;;;4.90;1.73;;;;;;;16.35;58.21;99284.13;5072576;28;20183;-86
2023/10/10 06:00:41;;;;;;;4.57;1.33;;;;;;;16.46;58.05;99281.53;5072994;28;20179;-86
2023/10/10 06:03:08;;;;;;;1.83;1.10;;;;;;;16.48;57.47;99282.25;5069259;28;20186;-86
2023/10/10 06:05:35;;;;;;;4.17;1.83;;;;;;;16.47;57.40;99287.69;5072902;28;20169;-87
2023/10/10 06:08:01;;;;;;;8.80;2.73;;;;;;;16.64;57.16;99302.34;5055098;28;20226;-86
2023/10/10 06:10:31;;;;;;;7.37;1.90;;;;;;;16.69;57.38;99281.66;5055229;28;20184;-87
2023/10/10 06:13:03;;;;;;;4.63;1.80;;;;;;;17.07;58.40;99287.53;5056318;28;20573;-87
2023/10/10 06:15:33;;;;;;;4.67;1.40;;;;;;;18.27;56.25;99273.50;5072918;28;20613;-86
2023/10/10 06:18:23;;;;;;;8.10;1.33;;;;;;;19.94;49.83;99278.66;5055148;28;20253;-86
2023/10/10 06:20:48;;;;;;;2.73;0.97;;;;;;;20.44;45.94;99271.50;5071901;28;20219;-86
2023/10/10 06:23:15;;;;;;;3.13;1.37;;;;;;;20.22;46.71;99281.38;5072757;28;20197;-86
2023/10/10 06:25:42;;;;;;;4.53;1.57;;;;;;;20.28;46.85;99279.19;5072587;28;20185;-87
2023/10/10 06:28:25;;;;;;;3.00;1.33;;;;;;;20.37;45.97;99275.66;5072910;28;20268;-86
2023/10/10 06:30:53;;;;;;;5.33;1.90;;;;;;;20.58;46.12;99279.06;5059014;28;20173;-87
2023/10/10 06:33:28;;;;;;;2.93;1.10;;;;;;;20.80;46.13;99284.09;5059099;28;20567;-87
2023/10/10 06:36:32;;;;;;;11.43;1.60;;;;;;;20.94;46.08;99286.31;5077073;28;20165;-86
2023/10/10 06:41:36;;;;;;;3.80;1.77;;;;;;;22.74;42.15;99273.31;5076404;28;20212;-87
2023/10/10 06:44:04;;;;;;;2.77;1.10;;;;;;;23.22;40.45;99273.66;5058114;28;20200;-86
2023/10/10 06:46:37;;;;;;;5.07;1.60;;;;;;;23.56;40.66;99279.94;5076546;28;20169;-86
2023/10/10 06:49:06;;;;;;;4.43;1.80;;;;;;;24.32;40.17;99280.75;5076355;28;20197;-86
2023/10/10 06:51:39;;;;;;;5.37;1.67;;;;;;;24.96;37.88;99277.34;5075343;28;20606;-87
2023/10/10 06:54:09;;;;;;;3.83;1.07;;;;;;;25.73;37.69;99273.19;5075152;28;20208;-87
2023/10/10 06:56:53;;;;;;;3.37;1.50;;;;;;;26.37;35.65;99279.28;5076169;28;20256;-88
2023/10/10 06:59:25;;;;;;;4.93;1.40;;;;;;;26.24;35.04;99293.28;5059608;28;20193;-87
2023/10/10 07:01:52;;;;;;;9.50;1.63;;;;;;;26.16;34.81;99288.81;5075987;28;20568;-87
2023/10/10 07:04:19;;;;;;;8.30;1.60;;;;;;;26.05;35.80;99289.16;5075800;28;20648;-87
2023/10/10 07:06:47;;;;;;;3.77;1.27;;;;;;;26.43;36.41;99276.72;5076170;28;20196;-87
2023/10/10 07:09:14;;;;;;;3.03;1.33;;;;;;;26.99;34.35;99277.34;5075861;28;20177;-88
2023/10/10 07:11:44;;;;;;;5.10;1.80;;;;;;;27.57;33.29;99271.25;5075610;28;20185;-88
2023/10/10 07:14:12;;;;;;;7.37;1.43;;;;;;;28.02;31.90;99271.03;5074723;28;20728;-88
2023/10/10 07:16:42;;;;;;;6.43;1.70;;;;;;;28.33;32.26;99279.72;5075599;28;20180;-88
2023/10/10 07:19:30;;;;;;;2.70;1.23;;;;;;;28.18;31.47;99275.38;5083920;28;20332;-88
2023/10/10 07:22:03;;;;;;;4.85;1.08;;;;;;;28.04;31.31;99269.84;5095870;28;20188;-88
2023/10/10 07:24:28;;;;;;;5.73;1.00;;;;;;;27.95;32.17;99275.50;5077558;28;20645;-89
2023/10/10 07:27:11;;;;;;;7.47;1.43;;;;;;;27.92;32.10;99270.47;5095570;28;20181;-89
2023/10/10 07:32:28;;;;;;;7.30;1.90;;;;;;;27.69;31.60;99269.75;5095948;28;20614;-88
2023/10/10 07:34:55;;;;;;;5.75;1.65;;;;;;;27.72;30.82;99274.78;5095921;28;20217;-89
2023/10/10 07:37:27;;;;;;;7.05;1.58;;;;;;;27.74;29.33;99270.03;5095958;28;20195;-89
2023/10/10 07:39:55;;;;;;;6.32;2.08;;;;;;;27.83;30.00;99271.63;5077148;28;20584;-89
2023/10/10 07:42:27;;;;;;;9.60;1.70;;;;;;;27.81;29.36;99279.88;5095471;28;20168;-89
2023/10/10 07:44:54;;;;;;;6.03;2.47;;;;;;;27.71;29.00;99268.53;5095058;28;20618;-89
2023/10/10 07:47:32;;;;;;;5.22;2.28;;;;;;;27.78;29.44;99265.94;5095292;28;20176;-89
2023/10/10 07:50:08;;;;;;;20.05;10.20;;;;;;;27.74;28.58;99262.78;5095645;28;20172;-89
2023/10/10 07:52:39;;;;;;;16.63;5.93;;;;;;;27.42;29.54;99268.53;5095546;28;20156;-88
2023/10/10 07:55:05;;;;;;;4.63;1.55;;;;;;;27.04;29.99;99277.63;5095546;28;20192;-90
2023/10/10 07:57:55;;;;;;;9.73;1.35;;;;;;;27.04;29.55;99273.09;5095156;28;20620;-89
2023/10/10 08:00:24;;;;;;;10.52;1.92;;;;;;;27.20;29.39;99280.19;5094835;28;20199;-90
2023/10/10 08:02:53;;;;;;;106.20;44.20;;;;;;;26.83;29.97;99284.50;5095215;28;20272;-89
2023/10/10 08:05:19;;;;;;;7.88;3.63;;;;;;;26.69;30.45;99285.28;5095465;28;20255;-89
2023/10/10 08:07:46;;;;;;;13.52;3.33;;;;;;;26.39;31.10;99290.72;5095016;28;20263;-89
2023/10/10 08:10:14;;;;;;;32.35;11.82;;;;;;;26.33;30.84;99286.03;5095125;28;20180;-89
2023/10/10 08:12:40;;;;;;;3.87;1.77;;;;;;;26.19;31.02;99284.94;5076938;28;20561;-89
2023/10/10 08:15:19;;;;;;;6.87;2.20;;;;;;;26.15;31.79;99291.69;5094878;28;20203;-90
2023/10/10 08:17:54;;;;;;;4.23;1.50;;;;;;;25.88;31.77;99284.03;5095381;28;20157;-90
2023/10/10 08:23:09;;;;;;;5.13;1.73;;;;;;;25.76;32.05;99288.94;5094488;28;20546;-88
2023/10/10 08:25:37;;;;;;;4.30;2.03;;;;;;;25.59;32.64;99276.59;5094534;28;20176;-89
2023/10/10 08:28:04;;;;;;;4.13;1.80;;;;;;;25.49;32.51;99287.53;5095023;28;20606;-89
2023/10/10 08:30:32;;;;;;;7.20;2.93;;;;;;;25.31;33.04;99284.19;5094618;28;20613;-88
2023/10/10 08:32:59;;;;;;;14.33;2.60;;;;;;;25.30;33.12;99284.34;5094177;28;20652;-90
2023/10/10 08:35:29;;;;;;;6.20;1.93;;;;;;;25.47;32.34;99280.66;5094513;28;20237;-89
2023/10/10 08:37:56;;;;;;;6.40;1.20;;;;;;;25.55;32.18;99286.00;5076663;28;20188;-91
2023/10/10 08:40:22;;;;;;;6.33;1.63;;;;;;;25.81;32.49;99283.91;5094294;28;20328;-90
2023/10/10 08:42:52;;;;;;;3.47;1.27;;;;;;;25.96;31.98;99290.22;5094424;28;20629;-90
2023/10/10 08:45:22;;;;;;;5.47;1.07;;;;;;;26.11;30.84;99290.31;5076062;28;20752;-90
2023/10/10 08:48:01;;;;;;;4.07;1.40;;;;;;;26.30;30.76;99281.00;5094827;28;20199;-89
2023/10/10 08:50:37;;;;;;;2.93;1.10;;;;;;;26.27;31.67;99282.19;5094398;28;20211;-90
2023/10/10 08:53:05;;;;;;;3.73;1.43;;;;;;;26.18;30.13;99296.69;5094291;28;20264;-90
2023/10/10 08:55:34;;;;;;;4.07;1.07;;;;;;;26.10;31.08;99300.22;5094060;28;20172;-90
2023/10/10 08:58:01;;;;;;;2.23;1.13;;;;;;;26.01;31.84;99303.97;5093906;28;20176;-88
2023/10/10 09:00:27;;;;;;;3.53;1.00;;;;;;;26.19;31.73;99301.06;5094110;28;20531;-90
2023/10/10 09:02:57;;;;;;;6.43;1.10;;;;;;;26.53;31.04;99298.84;5094178;28;20176;-89
2023/10/10 09:05:24;;;;;;;8.70;1.20;;;;;;;26.68;30.72;99299.72;5093906;28;20630;-90
2023/10/10 09:07:54;;;;;;;7.07;1.50;;;;;;;26.71;30.48;99294.00;5093991;28;20173;-90
2023/10/10 09:10:28;;;;;;;5.25;1.40;;;;;;;26.55;29.61;99294.13;5093975;28;20195;-90
2023/10/10 09:12:56;;;;;;;4.88;1.50;;;;;;;26.68;30.56;99297.03;5094190;28;20221;-89
2023/10/10 09:15:23;;;;;;;5.68;1.60;;;;;;;26.83;29.57;99305.22;5075928;28;20567;-89
2023/10/10 09:17:58;;;;;;;4.15;1.20;;;;;;;26.73;29.94;99293.81;5093435;28;20176;-89
2023/10/10 09:20:29;;;;;;;6.57;1.50;;;;;;;26.87;30.55;99303.84;5093489;28;20191;-90
2023/10/10 09:23:11;;;;;;;4.45;1.50;;;;;;;27.28;29.81;99305.16;5076462;28;20544;-91
2023/10/10 09:28:30;;;;;;;6.88;2.08;;;;;;;27.56;29.56;99296.50;5094387;28;20251;-91
2023/10/10 09:31:03;;;;;;;3.33;0.90;;;;;;;27.71;29.76;99292.78;5093532;28;20175;-89
2023/10/10 09:33:33;;;;;;;9.48;1.50;;;;;;;28.18;28.71;99302.34;5093839;28;20196;-91
2023/10/10 09:36:15;;;;;;;4.50;1.10;;;;;;;28.45;28.10;99299.78;5093694;28;20184;-90
2023/10/10 09:38:46;;;;;;;3.88;0.98;;;;;;;28.47;28.40;99291.50;5093757;28;20164;-91
2023/10/10 09:49:45;;;;;;;4.80;1.70;;;;;;;28.76;28.92;99286.03;5093534;28;20534;-90
2023/10/10 09:57:58;;;;;;;4.45;1.33;;;;;;;29.26;26.93;99287.72;5094157;28;20579;-91
2023/10/10 10:00:31;;;;;;;2.45;0.95;;;;;;;29.39;27.30;99285.13;5093395;28;20175;-91
2023/10/10 10:03:00;;;;;;;2.80;1.00;;;;;;;29.47;27.40;99278.75;5076606;28;20785;-91
2023/10/10 10:05:28;;;;;;;3.10;1.08;;;;;;;29.75;27.94;99277.66;5097507;28;20175;-91
2023/10/10 10:08:07;;;;;;;4.28;1.25;;;;;;;29.76;28.11;99279.34;5097181;28;20280;-91
2023/10/10 10:10:52;;;;;;;4.57;1.50;;;;;;;29.77;27.49;99270.19;5097354;28;20176;-91
2023/10/10 10:13:59;;;;;;;4.95;1.67;;;;;;;29.81;27.81;99268.81;5079213;28;20262;-91
2023/10/10 10:16:46;;;;;;;8.05;1.30;;;;;;;29.49;28.33;99272.09;5079635;28;20227;-90
2023/10/10 10:19:19;;;;;;;4.15;1.02;;;;;;;29.37;28.58;99268.28;5097355;28;20188;-91
2023/10/10 10:21:53;;;;;;;1.85;0.85;;;;;;;29.08;29.00;99269.28;5079475;28;20172;-91
2023/10/10 10:24:46;;;;;;;2.80;1.13;;;;;;;29.35;28.46;99275.75;5079210;28;20188;-90
2023/10/10 10:27:39;;;;;;;3.20;0.90;;;;;;;29.59;27.96;99275.28;5096430;28;20191;-91
2023/10/10 10:32:58;;;;;;;4.68;1.08;;;;;;;29.14;28.56;99271.19;5096622;28;20260;-90
2023/10/10 10:36:06;;;;;;;3.33;1.13;;;;;;;29.23;28.88;99255.72;5097238;28;20202;-90
2023/10/10 10:38:34;;;;;;;3.78;1.40;;;;;;;29.51;27.93;99264.63;5096690;28;20184;-91
2023/10/10 10:41:07;;;;;;;4.82;1.38;;;;;;;29.65;28.64;99266.38;5096866;28;20172;-89
2023/10/10 10:43:42;;;;;;;6.72;1.20;;;;;;;29.61;28.64;99267.00;5079078;28;20271;-94
2023/10/10 10:46:14;;;;;;;6.65;1.85;;;;;;;29.63;28.21;99270.31;5096930;28;20175;-91
2023/10/10 10:48:47;;;;;;;3.10;1.23;;;;;;;29.40;27.71;99265.22;5096639;28;20176;-89
2023/10/10 10:53:59;;;;;;;3.08;1.13;;;;;;;29.86;27.38;99246.56;5096672;28;20273;-89
2023/10/10 10:59:19;;;;;;;3.72;0.90;;;;;;;30.25;27.67;99243.19;5097003;28;20152;-92
2023/10/10 11:01:57;;;;;;;4.65;1.20;;;;;;;30.35;27.66;99243.63;5096040;28;20172;-91
2023/10/10 11:04:40;;;;;;;4.15;1.13;;;;;;;30.14;27.60;99250.00;5078361;28;20192;-92
2023/10/10 11:07:07;;;;;;;3.40;1.50;;;;;;;30.11;27.47;99246.88;5096832;28;20198;-92
2023/10/10 11:09:36;;;;;;;4.63;1.27;;;;;;;30.22;27.08;99230.91;5078947;28;20639;-91
2023/10/10 11:12:05;;;;;;;3.63;1.42;;;;;;;30.09;27.25;99246.25;5096292;28;20180;-91
2023/10/10 11:14:44;;;;;;;4.00;1.02;;;;;;;29.81;27.69;99232.81;5095219;28;20741;-92
2023/10/10 11:17:18;;;;;;;3.33;1.58;;;;;;;29.71;28.07;99237.75;5096552;28;20160;-92
2023/10/10 11:19:46;;;;;;;8.52;1.10;;;;;;;29.82;27.99;99235.31;5077967;28;20220;-91
2023/10/10 11:22:38;;;;;;;5.03;1.30;;;;;;;29.95;28.06;99231.03;5096359;28;20195;-91
2023/10/10 11:25:04;;;;;;;2.70;0.98;;;;;;;29.91;27.97;99235.16;5095517;28;20191;-92
2023/10/10 11:27:43;;;;;;;3.63;1.23;;;;;;;29.91;28.16;99243.25;5061412;28;20257;-90
2023/10/10 11:30:11;;;;;;;3.80;1.20;;;;;;;29.64;28.69;99232.28;5086492;28;20575;-91
2023/10/10 11:32:46;;;;;;;3.53;1.05;;;;;;;29.69;28.82;99229.81;5095867;28;20187;-91
2023/10/10 11:35:26;;;;;;;4.25;0.85;;;;;;;29.87;28.67;99228.50;5095875;28;20187;-91
2023/10/10 11:37:59;;;;;;;4.93;1.00;;;;;;;29.91;28.58;99225.19;5078343;28;20653;-91
2023/10/10 11:42:59;;;;;;;2.55;1.10;;;;;;;30.28;27.93;99213.03;5095789;28;20195;-92
2023/10/10 11:45:26;;;;;;;3.30;0.90;;;;;;;30.46;27.84;99213.28;5078017;28;20176;-91
2023/10/10 11:48:00;;;;;;;2.30;1.08;;;;;;;30.12;27.82;99216.94;5096147;28;20173;-91
2023/10/10 11:50:51;;;;;;;1.88;1.00;;;;;;;30.14;28.28;99216.72;5095362;28;20559;-90
2023/10/10 11:53:23;;;;;;;2.15;1.10;;;;;;;30.16;28.37;99217.38;5065566;28;20656;-92
2023/10/10 11:55:52;;;;;;;3.83;0.95;;;;;;;30.18;28.69;99223.41;5078530;28;20625;-90
2023/10/10 11:58:18;;;;;;;3.70;1.08;;;;;;;29.99;28.43;99214.19;5095201;28;20184;-93
2023/10/10 12:01:05;;;;;;;1.73;0.90;;;;;;;30.11;29.59;99214.44;5077423;28;20630;-92
2023/10/10 12:03:43;;;;;;;7.82;1.50;;;;;;;29.98;28.86;99219.81;5095204;28;20259;-90
2023/10/10 12:06:16;;;;;;;1.65;0.63;;;;;;;29.86;29.22;99214.13;5094963;28;20180;-91
2023/10/10 12:08:50;;;;;;;1.23;0.43;;;;;;;29.66;29.66;99218.59;5095087;28;20176;-90
2023/10/10 12:11:21;;;;;;;2.63;0.60;;;;;;;29.42;30.42;99217.22;5077412;28;20233;-91
2023/10/10 12:13:50;;;;;;;3.55;0.88;;;;;;;29.45;30.07;99224.94;5095189;28;20669;-89
2023/10/10 12:16:17;;;;;;;1.63;0.60;;;;;;;29.20;30.39;99227.25;5095151;28;20176;-90
2023/10/10 12:18:49;;;;;;;6.40;0.82;;;;;;;29.39;29.82;99217.59;5076606;28;20180;-92
2023/10/10 12:21:22;;;;;;;2.63;0.85;;;;;;;29.42;29.95;99214.53;5077313;28;20180;-91
2023/10/10 12:23:58;;;;;;;2.72;0.70;;;;;;;29.19;30.65;99219.31;5094942;28;20187;-91
2023/10/10 12:26:24;;;;;;;3.72;1.02;;;;;;;29.00;30.57;99215.44;5076593;28;20325;-90
2023/10/10 12:28:53;;;;;;;1.70;0.70;;;;;;;28.47;31.38;99224.91;5076944;28;20268;-90
2023/10/10 12:31:21;;;;;;;2.47;1.40;;;;;;;28.32;31.58;99224.13;5094656;28;20183;-89
2023/10/10 12:33:48;;;;;;;3.75;0.63;;;;;;;28.35;31.44;99223.75;5076527;28;20196;-90
2023/10/10 12:36:16;;;;;;;1.85;0.70;;;;;;;28.23;31.84;99225.28;5076824;28;20241;-91
2023/10/10 12:38:42;;;;;;;2.83;1.05;;;;;;;28.16;32.27;99213.59;5094313;28;20251;-89
2023/10/10 12:41:11;;;;;;;2.60;0.80;;;;;;;28.24;32.58;99221.56;5094465;28;20204;-90
2023/10/10 12:43:38;;;;;;;6.72;1.35;;;;;;;28.34;32.31;99214.00;5094421;28;20176;-90
2023/10/10 12:46:07;;;;;;;2.63;0.68;;;;;;;28.01;32.04;99207.38;5076348;28;20602;-89
2023/10/10 12:48:40;;;;;;;5.03;0.60;;;;;;;28.05;32.58;99208.69;5094323;28;20172;-90
2023/10/10 12:51:09;;;;;;;2.45;0.93;;;;;;;27.88;32.69;99199.16;5094079;28;20182;-89
2023/10/10 12:53:40;;;;;;;2.22;0.70;;;;;;;28.19;32.81;99213.22;5094206;28;20258;-89
2023/10/10 12:56:11;;;;;;;1.85;0.77;;;;;;;28.46;32.38;99211.59;5076335;28;20548;-89
2023/10/10 12:58:43;;;;;;;2.85;1.00;;;;;;;28.41;32.27;99211.34;5094285;28;20153;-89
2023/10/10 13:01:12;;;;;;;2.50;0.80;;;;;;;28.54;32.02;99215.00;5094217;28;20217;-90
2023/10/10 13:03:38;;;;;;;5.18;0.60;;;;;;;28.55;31.77;99213.16;5093964;28;20169;-90
2023/10/10 13:06:06;;;;;;;2.55;0.98;;;;;;;28.60;31.89;99208.00;5076016;28;20187;-89
2023/10/10 13:08:48;;;;;;;1.77;0.60;;;;;;;28.74;31.53;99217.09;5093987;28;20284;-90
2023/10/10 13:11:32;;;;;;;2.75;0.77;;;;;;;28.66;31.47;99214.53;5076022;28;20208;-89
2023/10/10 13:14:08;;;;;;;3.08;1.00;;;;;;;28.67;32.01;99210.81;5093976;28;20689;-90
2023/10/10 13:16:52;;;;;;;4.25;0.50;;;;;;;28.41;32.18;99212.19;5093609;28;20163;-89
2023/10/10 13:19:23;;;;;;;1.25;0.55;;;;;;;28.36;31.90;99220.03;5072283;28;20290;-89
2023/10/10 13:21:52;;;;;;;1.77;0.40;;;;;;;28.18;32.02;99222.31;5073572;28;20158;-90
2023/10/10 13:24:20;;;;;;;1.15;0.47;;;;;;;28.18;32.11;99225.00;5062345;28;20172;-90
2023/10/10 13:26:49;;;;;;;1.50;0.50;;;;;;;28.22;32.16;99220.94;5093971;28;20168;-89
2023/10/10 13:29:16;;;;;;;1.05;0.40;;;;;;;28.14;32.11;99221.03;5075738;28;20173;-89
2023/10/10 13:31:46;;;;;;;2.58;0.82;;;;;;;28.03;32.67;99216.13;5075563;28;20191;-90
2023/10/10 13:34:22;;;;;;;1.88;0.63;;;;;;;28.08;32.59;99215.56;5093144;28;20214;-89
2023/10/10 13:36:48;;;;;;;4.78;0.73;;;;;;;27.86;32.64;99225.41;5093286;28;20168;-89
2023/10/10 13:39:17;;;;;;;4.90;0.60;;;;;;;27.90;33.09;99224.88;5092757;28;20241;-89
2023/10/10 13:41:42;;;;;;;0.90;0.45;;;;;;;28.00;32.89;99224.56;5093554;28;20181;-88
2023/10/10 13:44:10;;;;;;;1.15;0.50;;;;;;;27.84;32.76;99230.16;5093269;28;20672;-89
2023/10/10 13:46:36;;;;;;;1.70;0.70;;;;;;;27.75;33.52;99228.63;5093192;28;20249;-90
2023/10/10 13:49:08;;;;;;;3.85;0.52;;;;;;;27.82;33.75;99222.28;5093866;28;20172;-90
2023/10/10 13:51:41;;;;;;;2.22;0.60;;;;;;;27.80;33.41;99231.56;5093021;28;20172;-89
2023/10/10 13:54:07;;;;;;;1.80;0.65;;;;;;;27.75;33.27;99232.13;5093512;28;20263;-89
2023/10/10 13:56:34;;;;;;;8.07;0.88;;;;;;;27.81;33.25;99234.06;5093376;28;20272;-89
2023/10/10 13:59:01;;;;;;;3.20;0.80;;;;;;;27.82;32.89;99232.22;5093192;28;20176;-89
2023/10/10 14:01:36;;;;;;;1.50;0.57;;;;;;;27.67;33.35;99234.94;5074904;28;20208;-89
2023/10/10 14:04:23;;;;;;;3.40;0.85;;;;;;;27.72;33.37;99237.91;5093553;28;20159;-89
2023/10/10 14:06:50;;;;;;;1.25;0.52;;;;;;;27.61;33.97;99235.69;5093322;28;20172;-89
2023/10/10 14:09:31;;;;;;;6.65;2.28;;;;;;;27.49;33.96;99234.44;5093528;28;20195;-89
2023/10/10 14:12:02;;;;;;;3.50;1.02;;;;;;;27.26;33.87;99229.13;5093575;28;20221;-90
2023/10/10 14:14:30;;;;;;;0.85;0.30;;;;;;;27.29;34.18;99234.16;5092988;28;20288;-89
2023/10/10 14:16:57;;;;;;;3.42;0.52;;;;;;;27.11;33.92;99241.75;5075282;28;20188;-88
2023/10/10 14:19:23;;;;;;;1.10;0.40;;;;;;;27.01;34.67;99243.88;5092770;28;20192;-88
2023/10/10 14:21:52;;;;;;;1.23;0.47;;;;;;;27.00;34.21;99239.47;5092981;28;20176;-89
2023/10/10 14:24:20;;;;;;;0.68;0.32;;;;;;;26.96;34.81;99245.44;5092590;28;20263;-88
2023/10/10 14:26:48;;;;;;;1.00;0.40;;;;;;;26.93;34.93;99246.63;5074973;28;20173;-89
2023/10/10 14:29:15;;;;;;;5.25;0.50;;;;;;;26.70;35.85;99241.22;5093254;28;20226;-90
2023/10/10 14:31:43;;;;;;;4.18;1.27;;;;;;;26.74;36.01;99241.69;5093045;28;20232;-88
2023/10/10 14:34:38;;;;;;;5.50;1.13;;;;;;;26.87;36.10;99246.50;5092646;28;20516;-89
2023/10/10 14:37:02;;;;;;;5.97;1.25;;;;;;;26.78;36.92;99253.81;5092495;28;20192;-89
2023/10/10 14:39:31;;;;;;;3.08;1.13;;;;;;;26.75;36.76;99254.16;5092525;28;20244;-90
2023/10/10 14:41:58;;;;;;;2.92;1.17;;;;;;;26.63;37.64;99261.78;5092789;28;20168;-88
2023/10/10 14:44:26;;;;;;;4.10;1.35;;;;;;;26.40;37.79;99263.63;5092365;28;20180;-88
2023/10/10 14:46:54;;;;;;;6.63;1.75;;;;;;;26.19;38.29;99250.84;5092790;28;20572;-88
2023/10/10 14:49:31;;;;;;;2.65;1.38;;;;;;;26.13;38.38;99264.97;5093323;28;20184;-89
2023/10/10 14:52:03;;;;;;;9.40;1.67;;;;;;;25.82;39.25;99272.13;5078995;28;20169;-92
2023/10/10 14:54:30;;;;;;;5.82;1.67;;;;;;;25.72;39.52;99274.19;5096477;28;20195;-89
2023/10/10 14:56:57;;;;;;;3.07;1.60;;;;;;;25.77;39.60;99279.03;5096517;28;20169;-88
2023/10/10 14:59:25;;;;;;;5.83;1.13;;;;;;;25.76;39.60;99277.38;5096521;28;20180;-90
2023/10/10 15:01:53;;;;;;;5.67;1.40;;;;;;;25.74;39.58;99282.91;5096370;28;20648;-88